Time;durP1;ratioP1;P1;durP2;ratioP2;P2;SDS_P1;SDS_P2;PMS_P1;PMS_P2;Temp;Humidity;BMP_temperature;BMP_pressure;BME280_temperature;BME280_humidity;BME280_pressure;Samples;Min_cycle;Max_cycle;Signal;HPM_P1;HPM_P2
2022/06/02 00:02:32;;;;;;;5.23;4.10;;;;;;;;;;5005613;28;20237;-69
2022/06/02 00:05:02;;;;;;;3.97;3.63;;;;;;;;;;5008356;28;20194;-68
2022/06/02 00:07:32;;;;;;;3.80;3.50;;;;;;;;;;5004393;28;20748;-69
2022/06/02 00:10:02;;;;;;;3.87;3.47;;;;;;;;;;4989051;28;20732;-68
2022/06/02 00:12:47;;;;;;;3.63;3.33;;;;;;;;;;5004675;28;20194;-67
2022/06/02 00:15:13;;;;;;;4.17;3.83;;;;;;;;;;5014756;28;20188;-69
2022/06/02 00:17:39;;;;;;;6.00;3.80;;;;;;;;;;5012464;28;20207;-69
2022/06/02 00:20:18;;;;;;;4.33;3.80;;;;;;;;;;5007222;28;20387;-69
2022/06/02 00:23:03;;;;;;;4.10;3.70;;;;;;;;;;5006777;28;20229;-69
2022/06/02 00:25:36;;;;;;;4.07;3.67;;;;;;;;;;5006584;28;20238;-68
2022/06/02 00:28:11;;;;;;;4.20;3.90;;;;;;;;;;5016697;28;20824;-69
2022/06/02 00:30:46;;;;;;;3.57;3.27;;;;;;;;;;5008309;28;20546;-69
2022/06/02 00:33:21;;;;;;;4.00;3.70;;;;;;;;;;5006747;28;20545;-69
2022/06/02 00:35:52;;;;;;;4.40;4.00;;;;;;;;;;5006130;28;20666;-69
2022/06/02 00:38:26;;;;;;;5.07;3.93;;;;;;;;;;5014636;28;20195;-68
2022/06/02 00:40:52;;;;;;;4.33;3.93;;;;;;;;;;4994629;28;20214;-68
2022/06/02 00:43:30;;;;;;;4.60;4.10;;;;;;;;;;5013278;28;20206;-67
2022/06/02 00:45:59;;;;;;;4.20;3.80;;;;;;;;;;5011381;28;20223;-68
2022/06/02 00:48:44;;;;;;;3.90;3.50;;;;;;;;;;5007979;28;20250;-67
2022/06/02 00:51:14;;;;;;;4.40;4.00;;;;;;;;;;5010159;28;20226;-69
2022/06/02 00:53:40;;;;;;;4.23;3.83;;;;;;;;;;5013514;28;20190;-69
2022/06/02 00:59:08;;;;;;;5.03;4.50;;;;;;;;;;5011088;28;20662;-68
2022/06/02 01:01:35;;;;;;;4.33;3.60;;;;;;;;;;5006365;28;20298;-68
2022/06/02 01:04:03;;;;;;;4.83;3.80;;;;;;;;;;5010504;28;20187;-68
2022/06/02 01:06:43;;;;;;;3.80;3.43;;;;;;;;;;5018326;28;20222;-68
2022/06/02 01:09:12;;;;;;;4.30;3.83;;;;;;;;;;5009000;28;20249;-67
2022/06/02 01:11:38;;;;;;;4.87;3.63;;;;;;;;;;5008946;28;20666;-68
2022/06/02 01:14:04;;;;;;;4.63;3.77;;;;;;;;;;5009897;28;20184;-67
2022/06/02 01:16:44;;;;;;;4.00;3.37;;;;;;;;;;5005922;28;20500;-68
2022/06/02 01:19:10;;;;;;;4.00;3.50;;;;;;;;;;5009680;28;20573;-68
2022/06/02 01:21:47;;;;;;;3.40;3.10;;;;;;;;;;5006053;28;20191;-68
2022/06/02 01:24:23;;;;;;;3.67;3.37;;;;;;;;;;5013023;28;20680;-68
2022/06/02 01:26:55;;;;;;;3.70;3.40;;;;;;;;;;5009550;28;20211;-68
2022/06/02 01:29:30;;;;;;;3.37;3.07;;;;;;;;;;5008133;28;20183;-68
2022/06/02 01:32:03;;;;;;;3.10;2.80;;;;;;;;;;5013104;28;20713;-67
2022/06/02 01:34:29;;;;;;;3.60;3.30;;;;;;;;;;5006318;28;20355;-67
2022/06/02 01:37:15;;;;;;;4.20;3.13;;;;;;;;;;5016112;28;20211;-67
2022/06/02 01:40:13;;;;;;;4.83;3.10;;;;;;;;;;5005856;28;20191;-67
2022/06/02 01:42:39;;;;;;;3.53;3.23;;;;;;;;;;4962726;28;20261;-68
2022/06/02 01:45:14;;;;;;;5.23;3.10;;;;;;;;;;5004955;28;20648;-67
2022/06/02 01:47:42;;;;;;;3.13;2.93;;;;;;;;;;5005866;28;20356;-67
2022/06/02 01:50:13;;;;;;;2.93;2.63;;;;;;;;;;5009500;28;20203;-68
2022/06/02 01:52:39;;;;;;;3.10;2.73;;;;;;;;;;5011711;28;20176;-68
2022/06/02 01:55:17;;;;;;;3.50;3.20;;;;;;;;;;5007055;28;21303;-68
2022/06/02 01:57:52;;;;;;;3.27;2.97;;;;;;;;;;5012063;28;20273;-68
2022/06/02 02:00:20;;;;;;;3.10;2.80;;;;;;;;;;5007690;28;20615;-68
2022/06/02 02:03:02;;;;;;;3.37;3.07;;;;;;;;;;5011861;28;20299;-67
2022/06/02 02:05:30;;;;;;;3.33;2.77;;;;;;;;;;5013711;28;20187;-68
2022/06/02 02:07:59;;;;;;;3.20;2.90;;;;;;;;;;5012986;28;20594;-68
2022/06/02 02:10:39;;;;;;;3.97;3.07;;;;;;;;;;5009706;28;20279;-68
2022/06/02 02:13:08;;;;;;;3.53;3.17;;;;;;;;;;5011782;28;20354;-68
2022/06/02 02:15:53;;;;;;;3.93;3.63;;;;;;;;;;5003156;28;20626;-68
2022/06/02 02:18:24;;;;;;;3.50;3.20;;;;;;;;;;5007749;28;20190;-67
2022/06/02 02:21:00;;;;;;;5.93;3.37;;;;;;;;;;5011501;28;20826;-67
2022/06/02 02:23:39;;;;;;;4.00;3.20;;;;;;;;;;5006150;28;20191;-68
2022/06/02 02:26:28;;;;;;;3.60;3.30;;;;;;;;;;5008792;28;20227;-68
2022/06/02 02:29:18;;;;;;;3.70;3.27;;;;;;;;;;4992879;28;20675;-67
2022/06/02 02:32:08;;;;;;;3.30;3.00;;;;;;;;;;5010641;28;20266;-67
2022/06/02 02:34:43;;;;;;;3.73;2.80;;;;;;;;;;5004277;28;20190;-68
2022/06/02 02:37:14;;;;;;;3.30;3.00;;;;;;;;;;5004172;28;20242;-67
2022/06/02 02:39:55;;;;;;;3.13;2.83;;;;;;;;;;5012250;28;20190;-68
2022/06/02 02:42:29;;;;;;;3.63;3.33;;;;;;;;;;5011071;28;20188;-68
2022/06/02 02:45:04;;;;;;;3.10;2.90;;;;;;;;;;5004485;28;20191;-69
2022/06/02 02:47:38;;;;;;;4.40;3.20;;;;;;;;;;5006956;28;20228;-68
2022/06/02 02:50:07;;;;;;;3.60;3.30;;;;;;;;;;5009125;28;20497;-69
2022/06/02 02:52:37;;;;;;;3.80;3.40;;;;;;;;;;5005169;28;20188;-69
2022/06/02 02:55:20;;;;;;;3.87;3.47;;;;;;;;;;5008760;28;20184;-69
2022/06/02 02:58:05;;;;;;;3.90;3.60;;;;;;;;;;5014478;28;20211;-66
2022/06/02 03:00:37;;;;;;;4.40;3.37;;;;;;;;;;5007531;28;20187;-69
2022/06/02 03:03:03;;;;;;;4.00;3.70;;;;;;;;;;5008910;28;20495;-67
2022/06/02 03:05:48;;;;;;;5.57;3.50;;;;;;;;;;5003904;28;20227;-68
2022/06/02 03:08:35;;;;;;;4.40;4.00;;;;;;;;;;5007094;28;20234;-69
2022/06/02 03:11:06;;;;;;;4.33;3.30;;;;;;;;;;4986377;28;20222;-69
2022/06/02 03:13:34;;;;;;;4.13;3.63;;;;;;;;;;5012852;28;20183;-68
2022/06/02 03:16:08;;;;;;;3.80;3.50;;;;;;;;;;5004215;28;20612;-68
2022/06/02 03:18:37;;;;;;;3.90;3.60;;;;;;;;;;5004379;28;20577;-68
2022/06/02 03:21:29;;;;;;;3.80;3.50;;;;;;;;;;5004374;28;20286;-68
2022/06/02 03:24:14;;;;;;;3.57;3.27;;;;;;;;;;4999680;28;20222;-69
2022/06/02 03:26:58;;;;;;;4.47;4.07;;;;;;;;;;5004132;28;20214;-67
2022/06/02 03:29:44;;;;;;;3.90;3.60;;;;;;;;;;5006620;28;20179;-69
2022/06/02 03:32:15;;;;;;;4.10;3.70;;;;;;;;;;4965734;28;20650;-69
2022/06/02 03:34:44;;;;;;;3.83;3.43;;;;;;;;;;5011370;28;20179;-68
2022/06/02 03:37:24;;;;;;;3.97;3.57;;;;;;;;;;5007439;28;20266;-68
2022/06/02 03:40:09;;;;;;;3.47;3.20;;;;;;;;;;5010446;28;20648;-68
2022/06/02 03:42:35;;;;;;;4.93;3.80;;;;;;;;;;5004414;28;20628;-69
2022/06/02 03:45:05;;;;;;;4.00;3.40;;;;;;;;;;5009174;28;20228;-68
2022/06/02 03:47:31;;;;;;;4.23;3.83;;;;;;;;;;5003409;28;20297;-67
2022/06/02 03:50:16;;;;;;;3.90;3.57;;;;;;;;;;5010158;28;20593;-68
2022/06/02 03:52:54;;;;;;;4.10;3.70;;;;;;;;;;5007846;28;20184;-67
2022/06/02 03:55:29;;;;;;;3.70;3.40;;;;;;;;;;5007317;28;20195;-67
2022/06/02 03:58:30;;;;;;;5.60;3.90;;;;;;;;;;5007025;28;20633;-68
2022/06/02 04:01:01;;;;;;;3.90;3.47;;;;;;;;;;4922045;29;20264;-68
2022/06/02 04:03:42;;;;;;;4.50;4.10;;;;;;;;;;5000518;28;20697;-68
2022/06/02 04:06:20;;;;;;;4.97;3.90;;;;;;;;;;5007474;28;20697;-68
2022/06/02 04:09:02;;;;;;;3.93;3.60;;;;;;;;;;5008910;28;20269;-68
2022/06/02 04:11:28;;;;;;;4.13;3.73;;;;;;;;;;5007665;28;20210;-68
2022/06/02 04:13:59;;;;;;;4.57;3.93;;;;;;;;;;5020435;28;20198;-68
2022/06/02 04:16:31;;;;;;;5.80;3.93;;;;;;;;;;5008951;28;20216;-68
2022/06/02 04:18:59;;;;;;;5.50;3.50;;;;;;;;;;5009481;28;20192;-68
2022/06/02 04:21:36;;;;;;;3.97;3.40;;;;;;;;;;5007467;28;20249;-68
2022/06/02 04:24:02;;;;;;;4.30;3.50;;;;;;;;;;5006600;28;20190;-68
2022/06/02 04:26:31;;;;;;;3.50;3.20;;;;;;;;;;5008094;28;20219;-66
2022/06/02 04:29:20;;;;;;;3.90;3.60;;;;;;;;;;5012751;28;20191;-68
2022/06/02 04:31:59;;;;;;;4.43;3.60;;;;;;;;;;4969360;28;20295;-67
2022/06/02 04:34:51;;;;;;;3.70;3.40;;;;;;;;;;5006712;28;20191;-68
2022/06/02 04:37:20;;;;;;;4.23;3.77;;;;;;;;;;4977228;28;20314;-70
2022/06/02 04:39:46;;;;;;;6.80;4.33;;;;;;;;;;4992173;28;20249;-69
2022/06/02 04:42:15;;;;;;;4.87;4.37;;;;;;;;;;5010656;28;20541;-68
2022/06/02 04:44:44;;;;;;;4.60;3.80;;;;;;;;;;5013657;28;20576;-68
2022/06/02 04:47:18;;;;;;;4.50;4.10;;;;;;;;;;5009654;28;20230;-67
2022/06/02 04:49:54;;;;;;;4.23;3.90;;;;;;;;;;5014246;28;20183;-69
2022/06/02 04:52:20;;;;;;;4.80;4.30;;;;;;;;;;5008447;28;20187;-69
2022/06/02 04:55:02;;;;;;;4.27;3.87;;;;;;;;;;5008770;28;20661;-69
2022/06/02 04:57:33;;;;;;;5.20;3.93;;;;;;;;;;5006408;28;20207;-68
2022/06/02 05:00:09;;;;;;;4.20;3.90;;;;;;;;;;5013602;28;20198;-69
2022/06/02 05:02:46;;;;;;;5.00;4.60;;;;;;;;;;5006343;28;20187;-68
2022/06/02 05:05:16;;;;;;;5.20;4.10;;;;;;;;;;5016922;28;20191;-68
2022/06/02 05:07:42;;;;;;;6.30;5.67;;;;;;;;;;5017798;28;20218;-69
2022/06/02 05:10:15;;;;;;;5.85;5.25;;;;;;;;;;5010027;28;20187;-68
2022/06/02 05:12:56;;;;;;;4.88;4.47;;;;;;;;;;5006192;28;20187;-68
2022/06/02 05:15:25;;;;;;;5.15;4.63;;;;;;;;;;5005966;28;20234;-68
2022/06/02 05:18:03;;;;;;;5.22;4.82;;;;;;;;;;5006014;28;20697;-69
2022/06/02 05:20:54;;;;;;;5.30;4.80;;;;;;;;;;5006934;28;20202;-68
2022/06/02 05:23:38;;;;;;;4.85;4.45;;;;;;;;;;5008546;28;20762;-69
2022/06/02 05:26:16;;;;;;;4.78;4.38;;;;;;;;;;5005942;28;20210;-67
2022/06/02 05:28:54;;;;;;;5.10;4.60;;;;;;;;;;5013305;28;20176;-68
2022/06/02 05:31:38;;;;;;;5.00;4.60;;;;;;;;;;5006041;28;20191;-69
2022/06/02 05:34:15;;;;;;;5.38;4.88;;;;;;;;;;5008549;28;20229;-69
2022/06/02 05:36:52;;;;;;;5.28;4.88;;;;;;;;;;5015286;28;20203;-68
2022/06/02 05:39:40;;;;;;;9.30;8.35;;;;;;;;;;5008437;28;20274;-69
2022/06/02 05:42:11;;;;;;;6.07;5.47;;;;;;;;;;5006650;28;20188;-69
2022/06/02 05:44:47;;;;;;;6.30;5.70;;;;;;;;;;5005210;28;20188;-69
2022/06/02 05:47:16;;;;;;;5.25;4.85;;;;;;;;;;5005567;28;20306;-68
2022/06/02 05:50:08;;;;;;;5.60;5.10;;;;;;;;;;5006114;28;20180;-69
2022/06/02 05:52:37;;;;;;;5.82;5.22;;;;;;;;;;4951909;28;21005;-69
2022/06/02 05:55:20;;;;;;;5.65;5.15;;;;;;;;;;5009799;28;20315;-69
2022/06/02 05:57:53;;;;;;;5.70;5.15;;;;;;;;;;5012027;28;20297;-68
2022/06/02 06:00:27;;;;;;;5.18;4.78;;;;;;;;;;5006020;28;20341;-68
2022/06/02 06:03:32;;;;;;;5.20;4.80;;;;;;;;;;5005254;28;20184;-69
2022/06/02 06:06:08;;;;;;;5.68;4.90;;;;;;;;;;4905829;29;20190;-68
2022/06/02 06:08:56;;;;;;;6.13;5.32;;;;;;;;;;4924551;29;20324;-69
2022/06/02 06:11:41;;;;;;;4.60;4.20;;;;;;;;;;4984913;28;20682;-69
2022/06/02 06:14:10;;;;;;;5.78;4.85;;;;;;;;;;5010085;28;20176;-69
2022/06/02 06:16:36;;;;;;;5.47;4.95;;;;;;;;;;5005294;28;20206;-69
2022/06/02 06:19:07;;;;;;;6.45;5.60;;;;;;;;;;5010137;28;20183;-68
2022/06/02 06:21:36;;;;;;;6.75;5.57;;;;;;;;;;5006135;28;20674;-69
2022/06/02 06:24:05;;;;;;;6.75;6.15;;;;;;;;;;5013937;28;20201;-68
2022/06/02 06:26:40;;;;;;;6.72;6.05;;;;;;;;;;5005879;28;20215;-68
2022/06/02 06:29:19;;;;;;;6.07;5.47;;;;;;;;;;5009228;28;20272;-69
2022/06/02 06:31:45;;;;;;;6.90;6.20;;;;;;;;;;5014048;28;20175;-69
2022/06/02 06:34:25;;;;;;;7.10;6.45;;;;;;;;;;5011438;28;20182;-69
2022/06/02 06:36:55;;;;;;;8.30;7.53;;;;;;;;;;5019506;28;20370;-69
2022/06/02 06:39:21;;;;;;;7.40;6.70;;;;;;;;;;5007058;28;20556;-69
2022/06/02 06:42:05;;;;;;;7.65;6.32;;;;;;;;;;5011952;28;20188;-69
2022/06/02 06:44:50;;;;;;;6.97;6.38;;;;;;;;;;5004146;28;21023;-69
2022/06/02 06:47:31;;;;;;;6.03;5.53;;;;;;;;;;5004370;28;20529;-69
2022/06/02 06:50:01;;;;;;;7.13;6.53;;;;;;;;;;5010127;28;20450;-69
2022/06/02 06:52:45;;;;;;;7.10;6.15;;;;;;;;;;5006065;28;20336;-68
2022/06/02 06:55:19;;;;;;;7.47;6.50;;;;;;;;;;5008175;28;20274;-68
2022/06/02 06:57:51;;;;;;;7.22;6.63;;;;;;;;;;5010888;28;20882;-67
2022/06/02 07:00:21;;;;;;;7.25;6.53;;;;;;;;;;5005825;28;20669;-69
2022/06/02 07:02:58;;;;;;;7.05;6.38;;;;;;;;;;5004163;28;20176;-69
2022/06/02 07:05:30;;;;;;;6.95;6.35;;;;;;;;;;5009875;28;20187;-70
2022/06/02 07:08:15;;;;;;;6.35;5.82;;;;;;;;;;5003551;28;20220;-69
2022/06/02 07:10:51;;;;;;;7.50;6.82;;;;;;;;;;5003336;28;20561;-68
2022/06/02 07:13:18;;;;;;;7.03;6.32;;;;;;;;;;5004542;28;20194;-69
2022/06/02 07:16:09;;;;;;;6.88;6.28;;;;;;;;;;5003785;28;20180;-68
2022/06/02 07:18:42;;;;;;;7.32;6.35;;;;;;;;;;5004058;28;20214;-68
2022/06/02 07:21:26;;;;;;;8.20;7.40;;;;;;;;;;5016265;28;20179;-68
2022/06/02 07:24:08;;;;;;;8.05;7.30;;;;;;;;;;5010083;28;20270;-69
2022/06/02 07:26:49;;;;;;;7.50;6.70;;;;;;;;;;5008990;28;20222;-68
2022/06/02 07:29:24;;;;;;;8.55;7.72;;;;;;;;;;5016291;28;20191;-68
2022/06/02 07:31:53;;;;;;;7.55;6.85;;;;;;;;;;5014562;28;20733;-68
2022/06/02 07:34:38;;;;;;;8.25;7.45;;;;;;;;;;5010051;28;20191;-68
2022/06/02 07:37:05;;;;;;;7.90;7.20;;;;;;;;;;5007799;28;20218;-69
2022/06/02 07:39:49;;;;;;;7.53;6.88;;;;;;;;;;5016070;28;20179;-68
2022/06/02 07:42:25;;;;;;;7.78;6.70;;;;;;;;;;5017675;28;20187;-68
2022/06/02 07:45:08;;;;;;;7.93;7.22;;;;;;;;;;5007320;28;20183;-68
2022/06/02 07:47:45;;;;;;;7.88;7.18;;;;;;;;;;5012479;28;20230;-68
2022/06/02 07:50:31;;;;;;;8.35;7.57;;;;;;;;;;5010523;28;20198;-67
2022/06/02 07:52:59;;;;;;;7.57;6.88;;;;;;;;;;5016451;28;20187;-69
2022/06/02 07:55:52;;;;;;;7.45;6.75;;;;;;;;;;5009026;28;20211;-69
2022/06/02 07:58:24;;;;;;;8.23;7.47;;;;;;;;;;4979255;28;20334;-68
2022/06/02 08:01:08;;;;;;;8.88;8.05;;;;;;;;;;5009124;28;20242;-70
2022/06/02 08:03:46;;;;;;;8.68;7.88;;;;;;;;;;5014135;28;20553;-69
2022/06/02 08:06:39;;;;;;;8.93;8.13;;;;;;;;;;5015667;28;20250;-69
2022/06/02 08:09:23;;;;;;;8.35;7.55;;;;;;;;;;5003710;28;20203;-69
2022/06/02 08:12:08;;;;;;;7.50;6.80;;;;;;;;;;5013937;28;20506;-69
2022/06/02 08:14:46;;;;;;;6.90;6.35;;;;;;;;;;5019641;28;20302;-69
2022/06/02 08:17:48;;;;;;;8.38;7.57;;;;;;;;;;5010797;28;20678;-68
2022/06/02 08:20:38;;;;;;;7.78;7.05;;;;;;;;;;4926646;29;20687;-69
2022/06/02 08:23:30;;;;;;;7.28;6.57;;;;;;;;;;5003940;28;20572;-69
2022/06/02 08:26:07;;;;;;;8.40;7.60;;;;;;;;;;5006926;28;20218;-69
2022/06/02 08:28:43;;;;;;;7.78;7.07;;;;;;;;;;5009089;28;20182;-69
2022/06/02 08:31:28;;;;;;;7.22;6.53;;;;;;;;;;5007021;28;20193;-69
2022/06/02 08:34:12;;;;;;;7.13;6.45;;;;;;;;;;5006122;28;20746;-69
2022/06/02 08:37:01;;;;;;;6.95;6.35;;;;;;;;;;5014874;28;20203;-69
2022/06/02 08:39:46;;;;;;;7.10;6.50;;;;;;;;;;5011509;28;20422;-69
2022/06/02 08:42:21;;;;;;;6.47;5.95;;;;;;;;;;5012316;28;20186;-69
2022/06/02 08:45:05;;;;;;;6.68;6.07;;;;;;;;;;5005913;28;20937;-69
2022/06/02 08:47:37;;;;;;;6.55;5.90;;;;;;;;;;5006488;28;20231;-69
2022/06/02 08:50:22;;;;;;;7.68;6.97;;;;;;;;;;5010960;28;20190;-69
2022/06/02 08:52:54;;;;;;;6.70;6.00;;;;;;;;;;5014710;28;20180;-69
2022/06/02 08:55:57;;;;;;;5.72;5.13;;;;;;;;;;5006234;28;20186;-69
2022/06/02 08:58:26;;;;;;;5.47;4.95;;;;;;;;;;4963336;28;20205;-70
2022/06/02 09:01:06;;;;;;;5.95;5.35;;;;;;;;;;5011318;28;20202;-69
2022/06/02 09:03:55;;;;;;;5.10;4.70;;;;;;;;;;5008004;28;20198;-69
2022/06/02 09:06:29;;;;;;;4.88;4.38;;;;;;;;;;5009794;28;20211;-69
2022/06/02 09:09:10;;;;;;;4.22;3.78;;;;;;;;;;5005044;28;20543;-69
2022/06/02 09:11:47;;;;;;;5.38;4.28;;;;;;;;;;5013887;28;20205;-69
2022/06/02 09:14:13;;;;;;;5.10;4.60;;;;;;;;;;5011422;28;20232;-68
2022/06/02 09:16:49;;;;;;;5.47;4.65;;;;;;;;;;5009138;28;20577;-69
2022/06/02 09:19:17;;;;;;;3.85;3.55;;;;;;;;;;5001553;28;20522;-69
2022/06/02 09:21:45;;;;;;;4.05;3.65;;;;;;;;;;5015208;28;20659;-69
2022/06/02 09:24:14;;;;;;;4.20;3.80;;;;;;;;;;5011290;28;20614;-69
2022/06/02 09:26:46;;;;;;;3.58;3.30;;;;;;;;;;5013487;28;20262;-70
2022/06/02 09:29:28;;;;;;;3.72;3.38;;;;;;;;;;5005046;28;20250;-69
2022/06/02 09:32:01;;;;;;;3.92;3.53;;;;;;;;;;5020029;28;20198;-69
2022/06/02 09:34:30;;;;;;;4.13;3.38;;;;;;;;;;5020894;28;20237;-69
2022/06/02 09:36:57;;;;;;;4.07;3.45;;;;;;;;;;5002783;28;20218;-69
2022/06/02 09:39:36;;;;;;;3.33;3.10;;;;;;;;;;5011672;28;20193;-69
2022/06/02 09:42:21;;;;;;;3.55;3.25;;;;;;;;;;5014430;28;20184;-68
2022/06/02 09:44:54;;;;;;;2.92;2.72;;;;;;;;;;5006700;28;20214;-69
2022/06/02 09:47:43;;;;;;;3.08;2.88;;;;;;;;;;5010923;28;20223;-69
2022/06/02 09:50:21;;;;;;;3.03;2.72;;;;;;;;;;5015970;28;20187;-69
2022/06/02 09:52:50;;;;;;;2.83;2.55;;;;;;;;;;5019899;28;20191;-69
2022/06/02 09:55:35;;;;;;;2.97;2.70;;;;;;;;;;5020343;28;20266;-69
2022/06/02 09:58:02;;;;;;;3.03;2.80;;;;;;;;;;5016868;28;20217;-69
2022/06/02 10:00:28;;;;;;;2.42;2.22;;;;;;;;;;4995848;28;20194;-69
2022/06/02 10:02:57;;;;;;;2.92;2.60;;;;;;;;;;5000148;28;20685;-69
2022/06/02 10:05:38;;;;;;;2.50;2.30;;;;;;;;;;5012594;28;20478;-70
2022/06/02 10:08:23;;;;;;;2.67;2.47;;;;;;;;;;5018532;28;20297;-69
2022/06/02 10:10:58;;;;;;;2.40;2.20;;;;;;;;;;5018656;28;20232;-67
2022/06/02 10:13:29;;;;;;;2.70;2.50;;;;;;;;;;5014151;28;20218;-69
2022/06/02 10:15:55;;;;;;;3.00;2.42;;;;;;;;;;5016366;28;20673;-69
2022/06/02 10:18:37;;;;;;;2.97;2.15;;;;;;;;;;4997824;28;20179;-69
2022/06/02 10:21:23;;;;;;;1.83;1.73;;;;;;;;;;4998513;28;20236;-69
2022/06/02 10:24:11;;;;;;;1.90;1.80;;;;;;;;;;5009692;28;20215;-69
2022/06/02 10:27:00;;;;;;;2.63;2.13;;;;;;;;;;5011015;28;20206;-69
2022/06/02 10:29:29;;;;;;;2.15;1.95;;;;;;;;;;5005241;28;20245;-69
2022/06/02 10:32:15;;;;;;;3.03;2.70;;;;;;;;;;5016858;28;20187;-69
2022/06/02 10:34:48;;;;;;;2.35;2.15;;;;;;;;;;5017653;28;20175;-69
2022/06/02 10:37:37;;;;;;;2.00;1.88;;;;;;;;;;5015044;28;20253;-67
2022/06/02 10:40:03;;;;;;;2.00;1.80;;;;;;;;;;5006544;28;20278;-69
2022/06/02 10:42:29;;;;;;;2.03;1.83;;;;;;;;;;4996397;28;20186;-70
2022/06/02 10:45:13;;;;;;;2.10;1.85;;;;;;;;;;5017346;28;20742;-69
2022/06/02 10:47:59;;;;;;;2.40;2.20;;;;;;;;;;5013731;28;20618;-70
2022/06/02 10:50:26;;;;;;;2.75;1.88;;;;;;;;;;5011346;28;20659;-69
2022/06/02 10:53:16;;;;;;;2.53;2.03;;;;;;;;;;5008630;28;20321;-70
2022/06/02 10:55:54;;;;;;;2.00;1.90;;;;;;;;;;5009328;28;20553;-69
2022/06/02 10:58:20;;;;;;;2.33;2.17;;;;;;;;;;5014221;28;20183;-70
2022/06/02 11:01:21;;;;;;;1.67;1.58;;;;;;;;;;5014499;28;20244;-69
2022/06/02 11:03:53;;;;;;;2.30;1.70;;;;;;;;;;4975707;28;20690;-70
2022/06/02 11:06:41;;;;;;;1.58;1.48;;;;;;;;;;5009523;28;20261;-70
2022/06/02 11:09:22;;;;;;;1.65;1.55;;;;;;;;;;5014778;28;20270;-70
2022/06/02 11:12:03;;;;;;;2.92;1.58;;;;;;;;;;5015120;28;20670;-70
2022/06/02 11:14:41;;;;;;;1.73;1.60;;;;;;;;;;5005900;28;20207;-69
2022/06/02 11:17:07;;;;;;;1.88;1.35;;;;;;;;;;4998706;28;20345;-70
2022/06/02 11:19:40;;;;;;;2.10;1.75;;;;;;;;;;5011467;28;20190;-70
2022/06/02 11:22:09;;;;;;;2.05;1.85;;;;;;;;;;5012021;28;21045;-69
2022/06/02 11:24:38;;;;;;;2.15;1.42;;;;;;;;;;4998392;28;20658;-70
2022/06/02 11:27:08;;;;;;;1.55;1.15;;;;;;;;;;5013191;28;20687;-70
2022/06/02 11:29:50;;;;;;;1.17;1.08;;;;;;;;;;5017173;28;20222;-69
2022/06/02 11:32:31;;;;;;;2.05;1.40;;;;;;;;;;5016960;28;20191;-70
2022/06/02 11:35:00;;;;;;;2.30;1.90;;;;;;;;;;5011929;28;20196;-69
2022/06/02 11:37:50;;;;;;;1.83;1.70;;;;;;;;;;4999562;28;20272;-68
2022/06/02 11:40:37;;;;;;;2.20;2.00;;;;;;;;;;5015925;28;20191;-69
2022/06/02 11:43:12;;;;;;;3.10;2.00;;;;;;;;;;5006280;28;20526;-69
2022/06/02 11:45:38;;;;;;;1.95;1.50;;;;;;;;;;5014151;28;20254;-69
2022/06/02 11:48:04;;;;;;;1.60;1.50;;;;;;;;;;5014211;28;20617;-70
2022/06/02 11:50:39;;;;;;;2.70;1.40;;;;;;;;;;5007901;28;20171;-69
2022/06/02 11:53:24;;;;;;;1.60;1.23;;;;;;;;;;5012075;28;20188;-69
2022/06/02 11:55:55;;;;;;;2.10;1.13;;;;;;;;;;5015854;28;20740;-70
2022/06/02 11:58:21;;;;;;;1.65;1.55;;;;;;;;;;5012878;28;20210;-68
2022/06/02 12:00:50;;;;;;;1.40;1.30;;;;;;;;;;5009781;28;20183;-69
2022/06/02 12:03:34;;;;;;;2.15;1.73;;;;;;;;;;5014670;28;20394;-69
2022/06/02 12:06:03;;;;;;;1.88;1.52;;;;;;;;;;5014058;28;20382;-69
2022/06/02 12:08:48;;;;;;;1.98;1.65;;;;;;;;;;5020602;28;20183;-69
2022/06/02 12:11:27;;;;;;;1.50;1.40;;;;;;;;;;5018827;28;20186;-70
2022/06/02 12:14:02;;;;;;;1.33;1.23;;;;;;;;;;5017534;28;20782;-69
2022/06/02 12:16:39;;;;;;;1.70;1.60;;;;;;;;;;5015982;28;20371;-69
2022/06/02 12:19:05;;;;;;;1.55;1.45;;;;;;;;;;5011660;28;20187;-69
2022/06/02 12:21:37;;;;;;;1.52;0.90;;;;;;;;;;5016656;28;20191;-69
2022/06/02 12:24:21;;;;;;;2.55;1.10;;;;;;;;;;5016997;28;20765;-69
2022/06/02 12:26:47;;;;;;;1.60;1.40;;;;;;;;;;5012062;28;20730;-69
2022/06/02 12:29:35;;;;;;;1.58;1.48;;;;;;;;;;5010218;28;20184;-68
2022/06/02 12:32:01;;;;;;;1.50;1.40;;;;;;;;;;5014336;28;20186;-69
2022/06/02 13:02:00;;;;;;;1.45;1.10;;;;;;;;;;5008552;28;20189;-69
2022/06/02 13:04:34;;;;;;;1.15;0.90;;;;;;;;;;5011782;28;20182;-69
2022/06/02 13:07:01;;;;;;;1.73;1.02;;;;;;;;;;5002838;28;20584;-69
2022/06/02 13:09:45;;;;;;;1.10;0.90;;;;;;;;;;5013547;28;20195;-69
2022/06/02 13:12:35;;;;;;;1.30;0.90;;;;;;;;;;5014442;28;20176;-69
2022/06/02 13:15:01;;;;;;;1.35;1.20;;;;;;;;;;5007267;28;20176;-69
2022/06/02 13:17:56;;;;;;;2.10;1.17;;;;;;;;;;4999756;28;20662;-70
2022/06/02 13:20:41;;;;;;;2.90;1.10;;;;;;;;;;5017635;28;20243;-69
2022/06/02 13:23:27;;;;;;;1.25;1.15;;;;;;;;;;5018270;28;20219;-68
2022/06/02 13:26:09;;;;;;;1.40;1.27;;;;;;;;;;5024071;28;20183;-70
2022/06/02 13:28:54;;;;;;;1.65;1.33;;;;;;;;;;5020511;28;20221;-69
2022/06/02 13:31:39;;;;;;;1.70;1.60;;;;;;;;;;5009075;28;20175;-70
2022/06/02 13:34:21;;;;;;;1.92;1.70;;;;;;;;;;5001994;28;20665;-69
2022/06/02 13:37:14;;;;;;;1.33;1.23;;;;;;;;;;5014851;28;20243;-69
2022/06/02 13:39:59;;;;;;;1.05;0.95;;;;;;;;;;5013319;28;20191;-70
2022/06/02 13:42:43;;;;;;;1.90;1.08;;;;;;;;;;5017892;28;20210;-69
2022/06/02 13:45:15;;;;;;;1.20;1.00;;;;;;;;;;5015393;28;20183;-70
2022/06/02 13:47:59;;;;;;;1.80;1.10;;;;;;;;;;5015364;28;20246;-69
2022/06/02 13:50:34;;;;;;;1.30;1.20;;;;;;;;;;4997640;28;20683;-69
2022/06/02 13:53:19;;;;;;;1.20;1.10;;;;;;;;;;5019418;28;20658;-70
2022/06/02 13:59:19;;;;;;;1.83;0.98;;;;;;;;;;5017594;28;20183;-70
2022/06/02 14:02:05;;;;;;;1.40;1.30;;;;;;;;;;5008752;28;20195;-70
2022/06/02 14:04:52;;;;;;;1.55;0.98;;;;;;;;;;5018429;28;20188;-69
2022/06/02 14:07:36;;;;;;;1.40;1.30;;;;;;;;;;5017889;28;20294;-69
2022/06/02 14:10:02;;;;;;;1.23;1.13;;;;;;;;;;5023822;28;20217;-70
2022/06/02 14:12:34;;;;;;;1.20;0.98;;;;;;;;;;5017288;28;20612;-70
2022/06/02 14:15:04;;;;;;;1.35;1.25;;;;;;;;;;5016039;28;20222;-70
2022/06/02 14:17:33;;;;;;;1.60;1.23;;;;;;;;;;5016515;28;20203;-69
2022/06/02 14:20:11;;;;;;;3.28;1.38;;;;;;;;;;5013089;28;20274;-70
2022/06/02 14:22:37;;;;;;;2.28;1.45;;;;;;;;;;5015766;28;20190;-70
2022/06/02 14:25:22;;;;;;;2.58;1.20;;;;;;;;;;4997618;28;20558;-70
2022/06/02 14:27:54;;;;;;;1.15;0.90;;;;;;;;;;5014359;28;20210;-70
2022/06/02 14:30:24;;;;;;;1.45;1.05;;;;;;;;;;5008016;28;20187;-69
2022/06/02 14:32:50;;;;;;;1.10;1.00;;;;;;;;;;5019302;28;20182;-69
2022/06/02 14:35:32;;;;;;;0.95;0.85;;;;;;;;;;5013592;28;20182;-70
2022/06/02 14:38:04;;;;;;;1.02;1.02;;;;;;;;;;5014044;28;20217;-69
2022/06/02 14:40:34;;;;;;;2.25;1.35;;;;;;;;;;4997202;28;20686;-70
2022/06/02 14:43:06;;;;;;;2.55;1.30;;;;;;;;;;5013965;28;20199;-70
2022/06/02 14:45:53;;;;;;;1.05;1.02;;;;;;;;;;5001736;28;20187;-69
2022/06/02 14:48:19;;;;;;;1.17;1.15;;;;;;;;;;5019633;28;20538;-69
2022/06/02 14:50:55;;;;;;;2.30;1.00;;;;;;;;;;5001701;28;20934;-69
2022/06/02 14:53:40;;;;;;;1.25;0.93;;;;;;;;;;5000523;28;20631;-69
2022/06/02 14:56:19;;;;;;;2.38;0.98;;;;;;;;;;4999374;28;20200;-69
2022/06/02 14:58:48;;;;;;;2.60;1.20;;;;;;;;;;5011588;28;20202;-69
2022/06/02 15:01:27;;;;;;;2.58;1.10;;;;;;;;;;5016181;28;20183;-70
2022/06/02 15:04:15;;;;;;;1.60;1.33;;;;;;;;;;5002353;28;20193;-69
2022/06/02 15:06:47;;;;;;;1.45;1.30;;;;;;;;;;5017441;28;20241;-69
2022/06/02 15:09:32;;;;;;;1.77;1.25;;;;;;;;;;5017739;28;20214;-69
2022/06/02 15:12:28;;;;;;;1.70;1.60;;;;;;;;;;5017658;28;20179;-69
2022/06/02 15:15:13;;;;;;;2.13;1.27;;;;;;;;;;5007943;28;20264;-70
2022/06/02 15:18:15;;;;;;;1.52;1.33;;;;;;;;;;5017988;28;20210;-69
2022/06/02 15:20:52;;;;;;;1.65;1.10;;;;;;;;;;5003007;28;20748;-69
2022/06/02 15:23:37;;;;;;;1.60;1.20;;;;;;;;;;5011501;28;20288;-69
2022/06/02 15:26:21;;;;;;;2.22;1.50;;;;;;;;;;5018392;28;20550;-69
2022/06/02 15:28:50;;;;;;;1.70;1.60;;;;;;;;;;5015768;28;20229;-68
2022/06/02 15:31:18;;;;;;;1.77;1.27;;;;;;;;;;5020082;28;20671;-69
2022/06/02 15:34:06;;;;;;;1.40;1.30;;;;;;;;;;4998977;28;20643;-69
2022/06/02 15:36:39;;;;;;;1.20;1.10;;;;;;;;;;5014266;28;20215;-69
2022/06/02 15:39:24;;;;;;;1.20;1.00;;;;;;;;;;5000131;28;20602;-69
2022/06/02 15:42:09;;;;;;;2.65;1.17;;;;;;;;;;5017880;28;20186;-69
2022/06/02 15:44:50;;;;;;;1.27;1.20;;;;;;;;;;5017701;28;20175;-70
2022/06/02 15:47:16;;;;;;;1.35;1.10;;;;;;;;;;5001591;28;20601;-69
2022/06/02 15:49:57;;;;;;;1.30;1.20;;;;;;;;;;5001835;28;20234;-69
2022/06/02 15:52:38;;;;;;;2.53;1.13;;;;;;;;;;5018527;28;20727;-70
2022/06/02 15:55:23;;;;;;;1.50;1.40;;;;;;;;;;5017397;28;20179;-69
2022/06/02 15:58:01;;;;;;;1.77;1.30;;;;;;;;;;5002522;28;20230;-69
2022/06/02 16:00:43;;;;;;;2.08;1.38;;;;;;;;;;5021530;28;20194;-68
2022/06/02 16:03:35;;;;;;;1.58;1.30;;;;;;;;;;5027209;28;20182;-69
2022/06/02 16:06:34;;;;;;;1.40;1.30;;;;;;;;;;5018526;28;20253;-68
2022/06/02 16:12:22;;;;;;;1.48;1.38;;;;;;;;;;5018448;28;20245;-70
2022/06/02 16:14:54;;;;;;;4.18;1.60;;;;;;;;;;5018297;28;20183;-69
2022/06/02 16:17:32;;;;;;;1.77;1.20;;;;;;;;;;5020440;28;20215;-70
2022/06/02 16:20:08;;;;;;;2.28;1.30;;;;;;;;;;5018515;28;20190;-70